sensor_id;sensor_type;location;lat;lon;timestamp;temperature;humidity
34837;DHT22;21053;50.848;4.652;2023-01-24T00:00:39;3.60;99.90
34837;DHT22;21053;50.848;4.652;2023-01-24T00:03:06;3.60;99.90
34837;DHT22;21053;50.848;4.652;2023-01-24T00:05:38;3.60;99.90
34837;DHT22;21053;50.848;4.652;2023-01-24T00:08:04;3.70;99.90
34837;DHT22;21053;50.848;4.652;2023-01-24T00:10:31;3.70;99.90
34837;DHT22;21053;50.848;4.652;2023-01-24T00:12:57;3.70;99.90
34837;DHT22;21053;50.848;4.652;2023-01-24T00:17:52;3.80;99.90
34837;DHT22;21053;50.848;4.652;2023-01-24T00:20:23;3.80;99.90
34837;DHT22;21053;50.848;4.652;2023-01-24T00:22:49;3.80;99.90
34837;DHT22;21053;50.848;4.652;2023-01-24T00:25:17;3.80;99.90
34837;DHT22;21053;50.848;4.652;2023-01-24T00:27:45;3.90;99.90
34837;DHT22;21053;50.848;4.652;2023-01-24T00:30:11;3.90;99.90
34837;DHT22;21053;50.848;4.652;2023-01-24T00:32:37;3.90;99.90
34837;DHT22;21053;50.848;4.652;2023-01-24T00:35:03;3.80;99.90
34837;DHT22;21053;50.848;4.652;2023-01-24T00:37:31;3.70;99.90
34837;DHT22;21053;50.848;4.652;2023-01-24T00:39:59;3.80;99.90
34837;DHT22;21053;50.848;4.652;2023-01-24T00:42:25;3.90;99.90
34837;DHT22;21053;50.848;4.652;2023-01-24T00:44:51;3.80;99.90
34837;DHT22;21053;50.848;4.652;2023-01-24T00:47:18;3.90;99.90
34837;DHT22;21053;50.848;4.652;2023-01-24T00:49:46;3.80;99.90
34837;DHT22;21053;50.848;4.652;2023-01-24T00:52:11;3.80;99.90
34837;DHT22;21053;50.848;4.652;2023-01-24T00:54:40;3.70;99.90
34837;DHT22;21053;50.848;4.652;2023-01-24T00:57:06;3.70;99.90
34837;DHT22;21053;50.848;4.652;2023-01-24T00:59:33;3.70;99.90
34837;DHT22;21053;50.848;4.652;2023-01-24T01:02:00;3.80;99.90
34837;DHT22;21053;50.848;4.652;2023-01-24T01:04:28;3.80;99.90
34837;DHT22;21053;50.848;4.652;2023-01-24T01:07:00;3.70;99.90
34837;DHT22;21053;50.848;4.652;2023-01-24T01:09:28;3.70;99.90
34837;DHT22;21053;50.848;4.652;2023-01-24T01:12:00;3.70;99.90
34837;DHT22;21053;50.848;4.652;2023-01-24T01:16:56;3.70;99.90
34837;DHT22;21053;50.848;4.652;2023-01-24T01:19:25;3.80;99.90
34837;DHT22;21053;50.848;4.652;2023-01-24T01:21:53;3.90;99.90
34837;DHT22;21053;50.848;4.652;2023-01-24T01:24:21;3.90;99.90
34837;DHT22;21053;50.848;4.652;2023-01-24T01:26:48;3.90;99.90
34837;DHT22;21053;50.848;4.652;2023-01-24T01:29:17;3.90;99.90
34837;DHT22;21053;50.848;4.652;2023-01-24T01:34:21;3.90;99.90
34837;DHT22;21053;50.848;4.652;2023-01-24T01:36:46;3.80;99.90
34837;DHT22;21053;50.848;4.652;2023-01-24T01:39:18;3.80;99.90
34837;DHT22;21053;50.848;4.652;2023-01-24T01:41:46;3.80;99.90
34837;DHT22;21053;50.848;4.652;2023-01-24T01:44:30;3.70;99.90
34837;DHT22;21053;50.848;4.652;2023-01-24T01:50:21;3.80;99.90
34837;DHT22;21053;50.848;4.652;2023-01-24T01:52:52;3.70;99.90
34837;DHT22;21053;50.848;4.652;2023-01-24T01:55:18;3.70;99.90
34837;DHT22;21053;50.848;4.652;2023-01-24T01:57:45;3.70;99.90
34837;DHT22;21053;50.848;4.652;2023-01-24T02:00:23;3.80;99.90
34837;DHT22;21053;50.848;4.652;2023-01-24T02:03:07;3.80;99.90
34837;DHT22;21053;50.848;4.652;2023-01-24T02:05:55;3.80;99.90
34837;DHT22;21053;50.848;4.652;2023-01-24T02:08:22;3.90;99.90
34837;DHT22;21053;50.848;4.652;2023-01-24T02:10:48;3.80;99.90
34837;DHT22;21053;50.848;4.652;2023-01-24T02:13:36;4.10;99.90
34837;DHT22;21053;50.848;4.652;2023-01-24T02:16:05;3.80;99.90
34837;DHT22;21053;50.848;4.652;2023-01-24T02:18:35;3.70;99.90
34837;DHT22;21053;50.848;4.652;2023-01-24T02:21:02;3.70;99.90
34837;DHT22;21053;50.848;4.652;2023-01-24T02:28:40;3.80;99.90
34837;DHT22;21053;50.848;4.652;2023-01-24T02:31:08;3.90;99.90
34837;DHT22;21053;50.848;4.652;2023-01-24T02:33:33;3.70;99.90
34837;DHT22;21053;50.848;4.652;2023-01-24T02:38:35;3.70;99.90
34837;DHT22;21053;50.848;4.652;2023-01-24T02:41:08;3.80;99.90
34837;DHT22;21053;50.848;4.652;2023-01-24T02:43:39;3.80;99.90
34837;DHT22;21053;50.848;4.652;2023-01-24T02:46:07;3.90;99.90
34837;DHT22;21053;50.848;4.652;2023-01-24T02:48:34;3.80;99.90
34837;DHT22;21053;50.848;4.652;2023-01-24T02:51:00;3.70;99.90
34837;DHT22;21053;50.848;4.652;2023-01-24T02:53:55;3.80;99.90
34837;DHT22;21053;50.848;4.652;2023-01-24T02:56:24;3.90;99.90
34837;DHT22;21053;50.848;4.652;2023-01-24T02:59:10;3.80;99.90
34837;DHT22;21053;50.848;4.652;2023-01-24T03:01:39;3.80;99.90
34837;DHT22;21053;50.848;4.652;2023-01-24T03:06:38;3.80;99.90
34837;DHT22;21053;50.848;4.652;2023-01-24T03:11:45;3.90;99.90
34837;DHT22;21053;50.848;4.652;2023-01-24T03:14:11;3.80;99.90
34837;DHT22;21053;50.848;4.652;2023-01-24T03:16:55;3.80;99.90
34837;DHT22;21053;50.848;4.652;2023-01-24T03:19:39;3.70;99.90
34837;DHT22;21053;50.848;4.652;2023-01-24T03:22:23;3.80;99.90
34837;DHT22;21053;50.848;4.652;2023-01-24T03:25:08;3.80;99.90
34837;DHT22;21053;50.848;4.652;2023-01-24T03:27:53;3.80;99.90
34837;DHT22;21053;50.848;4.652;2023-01-24T03:30:40;3.90;99.90
34837;DHT22;21053;50.848;4.652;2023-01-24T03:33:24;3.80;99.90
34837;DHT22;21053;50.848;4.652;2023-01-24T03:38:46;3.70;99.90
34837;DHT22;21053;50.848;4.652;2023-01-24T03:41:33;3.80;99.90
34837;DHT22;21053;50.848;4.652;2023-01-24T03:43:59;3.70;99.90
34837;DHT22;21053;50.848;4.652;2023-01-24T03:46:27;3.70;99.90
34837;DHT22;21053;50.848;4.652;2023-01-24T03:48:54;3.70;99.90
34837;DHT22;21053;50.848;4.652;2023-01-24T03:51:19;3.80;99.90
34837;DHT22;21053;50.848;4.652;2023-01-24T03:54:04;4.90;99.90
34837;DHT22;21053;50.848;4.652;2023-01-24T03:56:32;3.80;99.90
34837;DHT22;21053;50.848;4.652;2023-01-24T03:59:01;3.80;99.90
34837;DHT22;21053;50.848;4.652;2023-01-24T04:01:29;3.80;99.90
34837;DHT22;21053;50.848;4.652;2023-01-24T04:03:57;3.80;99.90
34837;DHT22;21053;50.848;4.652;2023-01-24T04:06:26;3.70;99.90
34837;DHT22;21053;50.848;4.652;2023-01-24T04:08:52;3.70;99.90
34837;DHT22;21053;50.848;4.652;2023-01-24T04:13:49;3.60;99.90
34837;DHT22;21053;50.848;4.652;2023-01-24T04:18:44;3.60;99.90
34837;DHT22;21053;50.848;4.652;2023-01-24T04:21:10;3.60;99.90
34837;DHT22;21053;50.848;4.652;2023-01-24T04:23:37;3.60;99.90
34837;DHT22;21053;50.848;4.652;2023-01-24T04:26:02;3.60;99.90
34837;DHT22;21053;50.848;4.652;2023-01-24T04:28:29;3.60;99.90
34837;DHT22;21053;50.848;4.652;2023-01-24T04:30:59;3.60;99.90
34837;DHT22;21053;50.848;4.652;2023-01-24T04:33:30;3.70;99.90
34837;DHT22;21053;50.848;4.652;2023-01-24T04:35:59;3.80;99.90
34837;DHT22;21053;50.848;4.652;2023-01-24T04:38:27;3.80;99.90
34837;DHT22;21053;50.848;4.652;2023-01-24T04:40:56;3.80;99.90
34837;DHT22;21053;50.848;4.652;2023-01-24T04:43:22;3.80;99.90
34837;DHT22;21053;50.848;4.652;2023-01-24T04:45:47;3.70;99.90
34837;DHT22;21053;50.848;4.652;2023-01-24T04:48:16;3.70;99.90
34837;DHT22;21053;50.848;4.652;2023-01-24T04:50:42;3.80;99.90
34837;DHT22;21053;50.848;4.652;2023-01-24T04:53:11;3.80;99.90
34837;DHT22;21053;50.848;4.652;2023-01-24T04:55:40;3.90;99.90
34837;DHT22;21053;50.848;4.652;2023-01-24T04:58:07;3.70;99.90
34837;DHT22;21053;50.848;4.652;2023-01-24T05:00:35;3.70;99.90
34837;DHT22;21053;50.848;4.652;2023-01-24T05:03:01;3.70;99.90
34837;DHT22;21053;50.848;4.652;2023-01-24T05:05:27;3.50;99.90
34837;DHT22;21053;50.848;4.652;2023-01-24T05:07:56;3.50;99.90
34837;DHT22;21053;50.848;4.652;2023-01-24T05:10:21;3.60;99.90
34837;DHT22;21053;50.848;4.652;2023-01-24T05:12:51;3.70;99.90
34837;DHT22;21053;50.848;4.652;2023-01-24T05:17:47;3.60;99.90
34837;DHT22;21053;50.848;4.652;2023-01-24T05:20:13;3.70;99.90
34837;DHT22;21053;50.848;4.652;2023-01-24T05:22:40;3.70;99.90
34837;DHT22;21053;50.848;4.652;2023-01-24T05:25:05;3.70;99.90
34837;DHT22;21053;50.848;4.652;2023-01-24T05:27:31;3.60;99.90
34837;DHT22;21053;50.848;4.652;2023-01-24T05:29:58;3.60;99.90
34837;DHT22;21053;50.848;4.652;2023-01-24T05:32:24;3.70;99.90
34837;DHT22;21053;50.848;4.652;2023-01-24T05:34:51;3.70;99.90
34837;DHT22;21053;50.848;4.652;2023-01-24T05:37:17;3.80;99.90
34837;DHT22;21053;50.848;4.652;2023-01-24T05:39:44;3.80;99.90
34837;DHT22;21053;50.848;4.652;2023-01-24T05:42:11;3.70;99.90
34837;DHT22;21053;50.848;4.652;2023-01-24T05:44:40;3.70;99.90
34837;DHT22;21053;50.848;4.652;2023-01-24T05:47:06;3.70;99.90
34837;DHT22;21053;50.848;4.652;2023-01-24T05:49:35;3.70;99.90
34837;DHT22;21053;50.848;4.652;2023-01-24T05:54:29;3.50;99.90
34837;DHT22;21053;50.848;4.652;2023-01-24T05:56:56;3.50;99.90
34837;DHT22;21053;50.848;4.652;2023-01-24T05:59:21;3.60;99.90
34837;DHT22;21053;50.848;4.652;2023-01-24T06:01:49;3.60;99.90
34837;DHT22;21053;50.848;4.652;2023-01-24T06:04:14;3.60;99.90
34837;DHT22;21053;50.848;4.652;2023-01-24T06:06:41;3.70;99.90
34837;DHT22;21053;50.848;4.652;2023-01-24T06:09:07;3.60;99.90
34837;DHT22;21053;50.848;4.652;2023-01-24T06:14:04;3.60;99.90
34837;DHT22;21053;50.848;4.652;2023-01-24T06:18:58;3.50;99.90
34837;DHT22;21053;50.848;4.652;2023-01-24T06:21:36;3.60;99.90
34837;DHT22;21053;50.848;4.652;2023-01-24T06:24:05;3.50;99.90
34837;DHT22;21053;50.848;4.652;2023-01-24T06:26:32;3.60;99.90
34837;DHT22;21053;50.848;4.652;2023-01-24T06:34:30;3.60;99.90
34837;DHT22;21053;50.848;4.652;2023-01-24T06:42:10;3.60;99.90
34837;DHT22;21053;50.848;4.652;2023-01-24T06:44:35;3.70;99.90
34837;DHT22;21053;50.848;4.652;2023-01-24T06:47:02;3.70;99.90
34837;DHT22;21053;50.848;4.652;2023-01-24T06:49:28;3.80;99.90
34837;DHT22;21053;50.848;4.652;2023-01-24T06:51:54;3.80;99.90
34837;DHT22;21053;50.848;4.652;2023-01-24T06:54:22;3.90;99.90
34837;DHT22;21053;50.848;4.652;2023-01-24T06:56:47;3.90;99.90
34837;DHT22;21053;50.848;4.652;2023-01-24T07:01:45;3.70;99.90
34837;DHT22;21053;50.848;4.652;2023-01-24T07:04:11;3.70;99.90
34837;DHT22;21053;50.848;4.652;2023-01-24T07:06:40;3.50;99.90
34837;DHT22;21053;50.848;4.652;2023-01-24T07:09:06;3.50;99.90
34837;DHT22;21053;50.848;4.652;2023-01-24T07:11:32;3.50;99.90
34837;DHT22;21053;50.848;4.652;2023-01-24T07:14:00;3.50;99.90
34837;DHT22;21053;50.848;4.652;2023-01-24T07:16:26;3.50;99.90
34837;DHT22;21053;50.848;4.652;2023-01-24T07:18:52;3.60;99.90
34837;DHT22;21053;50.848;4.652;2023-01-24T07:21:17;3.70;99.90
34837;DHT22;21053;50.848;4.652;2023-01-24T07:23:44;3.70;99.90
34837;DHT22;21053;50.848;4.652;2023-01-24T07:26:10;3.70;99.90
34837;DHT22;21053;50.848;4.652;2023-01-24T07:28:39;3.60;99.90
34837;DHT22;21053;50.848;4.652;2023-01-24T07:31:06;3.60;99.90
34837;DHT22;21053;50.848;4.652;2023-01-24T07:33:32;3.60;99.90
34837;DHT22;21053;50.848;4.652;2023-01-24T07:36:00;3.70;99.90
34837;DHT22;21053;50.848;4.652;2023-01-24T07:38:27;3.60;99.90
34837;DHT22;21053;50.848;4.652;2023-01-24T07:40:54;3.60;99.90
34837;DHT22;21053;50.848;4.652;2023-01-24T07:43:21;3.40;99.90
34837;DHT22;21053;50.848;4.652;2023-01-24T07:45:47;3.50;99.90
34837;DHT22;21053;50.848;4.652;2023-01-24T07:48:13;3.50;99.90
34837;DHT22;21053;50.848;4.652;2023-01-24T07:50:38;3.50;99.90
34837;DHT22;21053;50.848;4.652;2023-01-24T07:53:06;3.50;99.90
34837;DHT22;21053;50.848;4.652;2023-01-24T07:55:31;3.60;99.90
34837;DHT22;21053;50.848;4.652;2023-01-24T07:58:00;3.70;99.90
34837;DHT22;21053;50.848;4.652;2023-01-24T08:00:25;3.50;99.90
34837;DHT22;21053;50.848;4.652;2023-01-24T08:02:51;3.50;99.90
34837;DHT22;21053;50.848;4.652;2023-01-24T08:05:16;3.40;99.90
34837;DHT22;21053;50.848;4.652;2023-01-24T08:07:43;3.40;99.90
34837;DHT22;21053;50.848;4.652;2023-01-24T08:10:09;3.50;99.90
34837;DHT22;21053;50.848;4.652;2023-01-24T08:12:36;3.40;99.90
34837;DHT22;21053;50.848;4.652;2023-01-24T08:15:02;3.50;99.90
34837;DHT22;21053;50.848;4.652;2023-01-24T08:17:30;3.50;99.90
34837;DHT22;21053;50.848;4.652;2023-01-24T08:19:56;3.60;99.90
34837;DHT22;21053;50.848;4.652;2023-01-24T08:22:24;3.50;99.90
34837;DHT22;21053;50.848;4.652;2023-01-24T08:24:51;3.50;99.90
34837;DHT22;21053;50.848;4.652;2023-01-24T08:27:17;3.50;99.90
34837;DHT22;21053;50.848;4.652;2023-01-24T08:29:44;3.40;99.90
34837;DHT22;21053;50.848;4.652;2023-01-24T08:34:39;3.50;99.90
34837;DHT22;21053;50.848;4.652;2023-01-24T08:37:05;3.50;99.90
34837;DHT22;21053;50.848;4.652;2023-01-24T08:41:59;3.40;99.90
34837;DHT22;21053;50.848;4.652;2023-01-24T08:46:54;3.50;99.90
34837;DHT22;21053;50.848;4.652;2023-01-24T08:49:21;3.50;99.90
34837;DHT22;21053;50.848;4.652;2023-01-24T08:51:48;3.40;99.90
34837;DHT22;21053;50.848;4.652;2023-01-24T08:54:15;3.40;99.90
34837;DHT22;21053;50.848;4.652;2023-01-24T08:56:40;3.50;99.90
34837;DHT22;21053;50.848;4.652;2023-01-24T08:59:07;3.30;99.90
34837;DHT22;21053;50.848;4.652;2023-01-24T09:01:35;3.30;99.90
34837;DHT22;21053;50.848;4.652;2023-01-24T09:04:03;3.30;99.90
34837;DHT22;21053;50.848;4.652;2023-01-24T09:06:30;3.40;99.90
34837;DHT22;21053;50.848;4.652;2023-01-24T09:08:57;3.40;99.90
34837;DHT22;21053;50.848;4.652;2023-01-24T09:11:23;3.40;99.90
34837;DHT22;21053;50.848;4.652;2023-01-24T09:13:49;3.50;99.90
34837;DHT22;21053;50.848;4.652;2023-01-24T09:16:16;3.50;99.90
34837;DHT22;21053;50.848;4.652;2023-01-24T09:18:44;3.50;99.90
34837;DHT22;21053;50.848;4.652;2023-01-24T09:21:11;3.40;99.90
34837;DHT22;21053;50.848;4.652;2023-01-24T09:23:40;3.40;99.90
34837;DHT22;21053;50.848;4.652;2023-01-24T09:26:07;3.50;99.90
34837;DHT22;21053;50.848;4.652;2023-01-24T09:28:35;3.50;99.90
34837;DHT22;21053;50.848;4.652;2023-01-24T09:31:01;3.60;99.90
34837;DHT22;21053;50.848;4.652;2023-01-24T09:33:30;3.60;99.90
34837;DHT22;21053;50.848;4.652;2023-01-24T09:35:58;3.70;99.90
34837;DHT22;21053;50.848;4.652;2023-01-24T09:38:24;3.60;99.90
34837;DHT22;21053;50.848;4.652;2023-01-24T09:46:42;3.70;99.90
34837;DHT22;21053;50.848;4.652;2023-01-24T09:51:52;3.80;99.90
34837;DHT22;21053;50.848;4.652;2023-01-24T09:59:22;4.00;99.90
34837;DHT22;21053;50.848;4.652;2023-01-24T10:04:22;4.00;99.90
34837;DHT22;21053;50.848;4.652;2023-01-24T10:06:58;4.00;99.90
34837;DHT22;21053;50.848;4.652;2023-01-24T10:20:12;4.10;99.90
34837;DHT22;21053;50.848;4.652;2023-01-24T10:28:45;4.10;99.90
34837;DHT22;21053;50.848;4.652;2023-01-24T10:33:40;4.10;99.90
34837;DHT22;21053;50.848;4.652;2023-01-24T10:38:52;3.90;99.90
34837;DHT22;21053;50.848;4.652;2023-01-24T10:41:21;3.80;99.90
34837;DHT22;21053;50.848;4.652;2023-01-24T10:43:58;3.90;99.90
34837;DHT22;21053;50.848;4.652;2023-01-24T10:46:30;3.90;99.90
34837;DHT22;21053;50.848;4.652;2023-01-24T10:49:02;3.80;99.90
34837;DHT22;21053;50.848;4.652;2023-01-24T10:51:28;4.00;99.90
34837;DHT22;21053;50.848;4.652;2023-01-24T10:54:01;4.00;99.90
34837;DHT22;21053;50.848;4.652;2023-01-24T10:56:28;4.00;99.90
34837;DHT22;21053;50.848;4.652;2023-01-24T10:58:55;4.20;99.90
34837;DHT22;21053;50.848;4.652;2023-01-24T11:01:22;4.30;99.90
34837;DHT22;21053;50.848;4.652;2023-01-24T11:03:49;4.50;99.90
34837;DHT22;21053;50.848;4.652;2023-01-24T11:06:31;4.40;99.90
34837;DHT22;21053;50.848;4.652;2023-01-24T11:09:11;4.40;99.90
34837;DHT22;21053;50.848;4.652;2023-01-24T11:11:51;4.40;99.90
34837;DHT22;21053;50.848;4.652;2023-01-24T11:14:28;4.50;99.90
34837;DHT22;21053;50.848;4.652;2023-01-24T11:16:57;4.50;99.90
34837;DHT22;21053;50.848;4.652;2023-01-24T11:19:37;4.50;99.90
34837;DHT22;21053;50.848;4.652;2023-01-24T11:22:20;4.30;99.90
34837;DHT22;21053;50.848;4.652;2023-01-24T11:24:46;4.20;99.90
34837;DHT22;21053;50.848;4.652;2023-01-24T11:27:15;4.10;99.90
34837;DHT22;21053;50.848;4.652;2023-01-24T11:29:45;4.20;99.90
34837;DHT22;21053;50.848;4.652;2023-01-24T11:32:35;4.10;99.90
34837;DHT22;21053;50.848;4.652;2023-01-24T11:45:29;4.20;99.90
34837;DHT22;21053;50.848;4.652;2023-01-24T11:50:34;4.20;99.90
34837;DHT22;21053;50.848;4.652;2023-01-24T11:53:09;4.20;99.90
34837;DHT22;21053;50.848;4.652;2023-01-24T12:01:08;4.20;99.90
34837;DHT22;21053;50.848;4.652;2023-01-24T12:09:24;4.20;99.90
34837;DHT22;21053;50.848;4.652;2023-01-24T12:12:05;4.20;99.90
34837;DHT22;21053;50.848;4.652;2023-01-24T12:14:42;4.20;99.90
34837;DHT22;21053;50.848;4.652;2023-01-24T12:22:16;4.30;99.90
34837;DHT22;21053;50.848;4.652;2023-01-24T12:24:43;4.30;99.90
34837;DHT22;21053;50.848;4.652;2023-01-24T12:27:14;4.30;99.90
34837;DHT22;21053;50.848;4.652;2023-01-24T12:32:25;4.30;99.90
34837;DHT22;21053;50.848;4.652;2023-01-24T12:35:10;4.30;99.90
34837;DHT22;21053;50.848;4.652;2023-01-24T12:37:48;4.10;99.90
34837;DHT22;21053;50.848;4.652;2023-01-24T12:40:23;4.10;99.90
34837;DHT22;21053;50.848;4.652;2023-01-24T12:45:38;4.10;99.90
34837;DHT22;21053;50.848;4.652;2023-01-24T12:48:09;4.30;99.90
34837;DHT22;21053;50.848;4.652;2023-01-24T12:50:53;4.20;99.90
34837;DHT22;21053;50.848;4.652;2023-01-24T12:53:38;4.30;99.90
34837;DHT22;21053;50.848;4.652;2023-01-24T12:56:09;4.20;99.90
34837;DHT22;21053;50.848;4.652;2023-01-24T12:58:44;4.20;99.90
34837;DHT22;21053;50.848;4.652;2023-01-24T13:09:28;4.40;99.90
34837;DHT22;21053;50.848;4.652;2023-01-24T13:11:54;4.60;99.90
34837;DHT22;21053;50.848;4.652;2023-01-24T13:14:25;4.40;99.90
34837;DHT22;21053;50.848;4.652;2023-01-24T13:22:25;4.60;99.90
34837;DHT22;21053;50.848;4.652;2023-01-24T13:27:41;4.40;99.90
34837;DHT22;21053;50.848;4.652;2023-01-24T13:32:48;4.40;99.90
34837;DHT22;21053;50.848;4.652;2023-01-24T13:35:19;4.70;99.90
34837;DHT22;21053;50.848;4.652;2023-01-24T13:42:44;4.60;99.90
34837;DHT22;21053;50.848;4.652;2023-01-24T13:47:54;4.80;99.90
34837;DHT22;21053;50.848;4.652;2023-01-24T13:50:21;4.80;99.90
34837;DHT22;21053;50.848;4.652;2023-01-24T13:57:45;4.70;99.90
34837;DHT22;21053;50.848;4.652;2023-01-24T14:10:39;4.40;99.90
34837;DHT22;21053;50.848;4.652;2023-01-24T14:13:10;4.40;99.90
34837;DHT22;21053;50.848;4.652;2023-01-24T14:15:52;4.20;99.90
34837;DHT22;21053;50.848;4.652;2023-01-24T14:21:03;4.00;99.90
34837;DHT22;21053;50.848;4.652;2023-01-24T14:23:30;4.00;99.90
34837;DHT22;21053;50.848;4.652;2023-01-24T14:25:59;4.00;99.90
34837;DHT22;21053;50.848;4.652;2023-01-24T14:28:38;4.00;99.90
34837;DHT22;21053;50.848;4.652;2023-01-24T14:34:00;4.10;99.90
34837;DHT22;21053;50.848;4.652;2023-01-24T14:36:38;4.00;99.90
34837;DHT22;21053;50.848;4.652;2023-01-24T14:41:56;4.10;99.90
34837;DHT22;21053;50.848;4.652;2023-01-24T14:44:26;4.10;99.90
34837;DHT22;21053;50.848;4.652;2023-01-24T14:46:58;4.10;99.90
34837;DHT22;21053;50.848;4.652;2023-01-24T14:49:27;4.10;99.90
34837;DHT22;21053;50.848;4.652;2023-01-24T14:51:54;4.00;99.90
34837;DHT22;21053;50.848;4.652;2023-01-24T14:54:23;3.90;99.90
34837;DHT22;21053;50.848;4.652;2023-01-24T14:59:20;3.90;99.90
34837;DHT22;21053;50.848;4.652;2023-01-24T15:01:51;3.80;99.90
34837;DHT22;21053;50.848;4.652;2023-01-24T15:06:49;3.70;99.90
34837;DHT22;21053;50.848;4.652;2023-01-24T15:09:28;3.90;99.90
34837;DHT22;21053;50.848;4.652;2023-01-24T15:14:45;3.90;99.90
34837;DHT22;21053;50.848;4.652;2023-01-24T15:17:23;3.80;99.90
34837;DHT22;21053;50.848;4.652;2023-01-24T15:22:41;3.80;99.90
34837;DHT22;21053;50.848;4.652;2023-01-24T15:25:18;3.90;99.90
34837;DHT22;21053;50.848;4.652;2023-01-24T15:27:57;3.80;99.90
34837;DHT22;21053;50.848;4.652;2023-01-24T15:39:18;3.70;99.90
34837;DHT22;21053;50.848;4.652;2023-01-24T15:41:49;3.70;99.90
34837;DHT22;21053;50.848;4.652;2023-01-24T15:47:34;3.70;99.90
34837;DHT22;21053;50.848;4.652;2023-01-24T15:50:19;3.80;99.90
34837;DHT22;21053;50.848;4.652;2023-01-24T16:04:54;3.80;99.90
34837;DHT22;21053;50.848;4.652;2023-01-24T16:07:28;3.60;99.90
34837;DHT22;21053;50.848;4.652;2023-01-24T16:18:51;3.40;99.90
34837;DHT22;21053;50.848;4.652;2023-01-24T16:26:57;3.60;99.90
34837;DHT22;21053;50.848;4.652;2023-01-24T16:29:45;3.70;99.90
34837;DHT22;21053;50.848;4.652;2023-01-24T16:46:50;3.80;99.90
34837;DHT22;21053;50.848;4.652;2023-01-24T16:51:48;3.70;99.90
34837;DHT22;21053;50.848;4.652;2023-01-24T16:54:15;3.80;99.90
34837;DHT22;21053;50.848;4.652;2023-01-24T16:56:44;3.80;99.90
34837;DHT22;21053;50.848;4.652;2023-01-24T16:59:12;3.70;99.90
34837;DHT22;21053;50.848;4.652;2023-01-24T17:01:40;3.70;99.90
34837;DHT22;21053;50.848;4.652;2023-01-24T17:06:38;3.70;99.90
34837;DHT22;21053;50.848;4.652;2023-01-24T17:09:04;3.80;99.90
34837;DHT22;21053;50.848;4.652;2023-01-24T17:11:34;3.90;99.90
34837;DHT22;21053;50.848;4.652;2023-01-24T17:16:34;3.80;99.90
34837;DHT22;21053;50.848;4.652;2023-01-24T17:19:01;3.50;99.90
34837;DHT22;21053;50.848;4.652;2023-01-24T17:21:28;3.40;99.90
34837;DHT22;21053;50.848;4.652;2023-01-24T17:23:57;3.40;99.90
34837;DHT22;21053;50.848;4.652;2023-01-24T17:26:26;3.40;99.90
34837;DHT22;21053;50.848;4.652;2023-01-24T17:33:54;3.40;99.90
34837;DHT22;21053;50.848;4.652;2023-01-24T17:36:21;3.40;99.90
34837;DHT22;21053;50.848;4.652;2023-01-24T17:38:48;3.40;99.90
34837;DHT22;21053;50.848;4.652;2023-01-24T17:41:16;3.40;99.90
34837;DHT22;21053;50.848;4.652;2023-01-24T17:43:42;3.30;99.90
34837;DHT22;21053;50.848;4.652;2023-01-24T17:46:10;3.30;99.90
34837;DHT22;21053;50.848;4.652;2023-01-24T17:48:38;3.40;99.90
34837;DHT22;21053;50.848;4.652;2023-01-24T17:51:10;3.50;99.90
34837;DHT22;21053;50.848;4.652;2023-01-24T17:53:40;3.50;99.90
34837;DHT22;21053;50.848;4.652;2023-01-24T17:56:06;3.60;99.90
34837;DHT22;21053;50.848;4.652;2023-01-24T17:58:42;3.70;99.90
34837;DHT22;21053;50.848;4.652;2023-01-24T18:01:08;3.70;99.90
34837;DHT22;21053;50.848;4.652;2023-01-24T18:03:34;3.70;99.90
34837;DHT22;21053;50.848;4.652;2023-01-24T18:06:03;3.70;99.90
34837;DHT22;21053;50.848;4.652;2023-01-24T18:08:30;3.60;99.90
34837;DHT22;21053;50.848;4.652;2023-01-24T18:11:07;3.50;99.90
34837;DHT22;21053;50.848;4.652;2023-01-24T18:13:36;3.30;99.90
34837;DHT22;21053;50.848;4.652;2023-01-24T18:16:05;3.30;99.90
34837;DHT22;21053;50.848;4.652;2023-01-24T18:18:33;3.30;99.90
34837;DHT22;21053;50.848;4.652;2023-01-24T18:20:59;3.40;99.90
34837;DHT22;21053;50.848;4.652;2023-01-24T18:23:25;3.50;99.90
34837;DHT22;21053;50.848;4.652;2023-01-24T18:25:51;3.50;99.90
34837;DHT22;21053;50.848;4.652;2023-01-24T18:28:19;3.50;99.90
34837;DHT22;21053;50.848;4.652;2023-01-24T18:30:45;3.30;99.90
34837;DHT22;21053;50.848;4.652;2023-01-24T18:33:16;3.30;99.90
34837;DHT22;21053;50.848;4.652;2023-01-24T18:38:12;3.50;99.90
34837;DHT22;21053;50.848;4.652;2023-01-24T18:40:38;3.30;99.90
34837;DHT22;21053;50.848;4.652;2023-01-24T18:43:07;3.20;99.90
34837;DHT22;21053;50.848;4.652;2023-01-24T18:45:36;3.20;99.90
34837;DHT22;21053;50.848;4.652;2023-01-24T18:48:02;3.20;99.90
34837;DHT22;21053;50.848;4.652;2023-01-24T18:50:30;3.30;99.90
34837;DHT22;21053;50.848;4.652;2023-01-24T18:52:56;3.30;99.90
34837;DHT22;21053;50.848;4.652;2023-01-24T18:57:53;3.30;99.90
34837;DHT22;21053;50.848;4.652;2023-01-24T19:00:21;3.40;99.90
34837;DHT22;21053;50.848;4.652;2023-01-24T19:02:52;3.40;99.90
34837;DHT22;21053;50.848;4.652;2023-01-24T19:05:17;3.40;99.90
34837;DHT22;21053;50.848;4.652;2023-01-24T19:07:46;3.50;99.90
34837;DHT22;21053;50.848;4.652;2023-01-24T19:12:41;3.30;99.90
34837;DHT22;21053;50.848;4.652;2023-01-24T19:15:07;3.40;99.90
34837;DHT22;21053;50.848;4.652;2023-01-24T19:17:33;3.30;99.90
34837;DHT22;21053;50.848;4.652;2023-01-24T19:19:59;3.40;99.90
34837;DHT22;21053;50.848;4.652;2023-01-24T19:22:25;3.40;99.90
34837;DHT22;21053;50.848;4.652;2023-01-24T19:24:51;3.50;99.90
34837;DHT22;21053;50.848;4.652;2023-01-24T19:27:19;3.60;99.90
34837;DHT22;21053;50.848;4.652;2023-01-24T19:29:46;3.60;99.90
34837;DHT22;21053;50.848;4.652;2023-01-24T19:32:14;3.40;99.90
34837;DHT22;21053;50.848;4.652;2023-01-24T19:34:54;3.20;99.90
34837;DHT22;21053;50.848;4.652;2023-01-24T19:40:09;3.20;99.90
34837;DHT22;21053;50.848;4.652;2023-01-24T19:42:35;3.30;99.90
34837;DHT22;21053;50.848;4.652;2023-01-24T19:45:03;3.30;99.90
34837;DHT22;21053;50.848;4.652;2023-01-24T19:47:28;3.20;99.90
34837;DHT22;21053;50.848;4.652;2023-01-24T19:49:55;3.20;99.90
34837;DHT22;21053;50.848;4.652;2023-01-24T19:52:22;3.00;99.90
34837;DHT22;21053;50.848;4.652;2023-01-24T19:54:51;3.00;99.90
34837;DHT22;21053;50.848;4.652;2023-01-24T19:57:22;3.00;99.90
34837;DHT22;21053;50.848;4.652;2023-01-24T19:59:49;3.00;99.90
34837;DHT22;21053;50.848;4.652;2023-01-24T20:04:46;2.90;99.90
34837;DHT22;21053;50.848;4.652;2023-01-24T20:07:11;2.90;99.90
34837;DHT22;21053;50.848;4.652;2023-01-24T20:09:37;3.00;99.90
34837;DHT22;21053;50.848;4.652;2023-01-24T20:12:04;3.20;99.90
34837;DHT22;21053;50.848;4.652;2023-01-24T20:17:04;3.20;99.90
34837;DHT22;21053;50.848;4.652;2023-01-24T20:19:32;3.30;99.90
34837;DHT22;21053;50.848;4.652;2023-01-24T20:21:59;3.50;99.90
34837;DHT22;21053;50.848;4.652;2023-01-24T20:24:27;3.40;99.90
34837;DHT22;21053;50.848;4.652;2023-01-24T20:26:53;3.30;99.90
34837;DHT22;21053;50.848;4.652;2023-01-24T20:29:21;3.30;99.90
34837;DHT22;21053;50.848;4.652;2023-01-24T20:31:49;3.20;99.90
34837;DHT22;21053;50.848;4.652;2023-01-24T20:34:17;3.20;99.90